Time;durP1;ratioP1;P1;durP2;ratioP2;P2;SDS_P1;SDS_P2;PMS_P1;PMS_P2;Temp;Humidity;BMP_temperature;BMP_pressure;BME280_temperature;BME280_humidity;BME280_pressure;Samples;Min_cycle;Max_cycle;Signal;HPM_P1;HPM_P2
2022/05/05 00:00:10;;;;;;;;;19.00;17.50;;;;;17.35;49.25;101587.44;5094743;27;45361;-65
2022/05/05 00:02:36;;;;;;;;;15.25;12.75;;;;;17.35;49.63;101595.53;5108708;27;45340;-67
2022/05/05 00:05:02;;;;;;;;;17.50;15.25;;;;;17.26;50.14;101593.63;5114548;27;46455;-67
2022/05/05 00:07:27;;;;;;;;;20.25;16.00;;;;;17.25;49.88;101586.41;5114818;27;45536;-67
2022/05/05 00:09:53;;;;;;;;;12.75;12.25;;;;;17.22;49.64;101590.88;5096727;27;45572;-67
2022/05/05 00:15:04;;;;;;;;;15.50;11.75;;;;;17.16;49.51;101594.41;5114504;27;45776;-66
2022/05/05 00:17:32;;;;;;;;;18.50;16.75;;;;;17.17;50.09;101600.72;5114493;27;45349;-66
2022/05/05 00:19:57;;;;;;;;;18.25;16.00;;;;;16.98;49.41;101575.25;5114666;27;45427;-67
2022/05/05 00:22:23;;;;;;;;;9.50;9.50;;;;;17.10;50.04;101606.03;5114759;27;45474;-66
2022/05/05 00:24:48;;;;;;;;;14.25;12.75;;;;;16.98;49.63;101581.56;5114541;27;45907;-67
2022/05/05 00:27:13;;;;;;;;;17.50;16.00;;;;;16.98;49.74;101602.25;5113842;27;46233;-67
2022/05/05 00:29:39;;;;;;;;;12.75;11.00;;;;;16.95;50.32;101600.44;5114379;27;45493;-66
2022/05/05 00:32:04;;;;;;;;;13.25;13.25;;;;;16.91;50.21;101596.78;5076946;27;45530;-68
2022/05/05 00:34:29;;;;;;;;;19.50;16.00;;;;;16.77;50.70;101588.44;5113301;27;45490;-67
2022/05/05 00:36:55;;;;;;;;;20.00;18.00;;;;;16.76;51.05;101607.31;5114382;27;45622;-67
2022/05/05 00:39:20;;;;;;;;;20.75;15.75;;;;;16.73;51.01;101605.50;5114227;27;45381;-68
2022/05/05 00:41:47;;;;;;;;;15.50;13.50;;;;;16.70;51.03;101601.84;5114726;27;45631;-68
2022/05/05 00:44:13;;;;;;;;;15.00;15.00;;;;;16.62;51.01;101585.53;5113813;27;46031;-68
2022/05/05 00:46:39;;;;;;;;;18.50;15.25;;;;;16.59;51.58;101598.97;5113843;27;45246;-66
2022/05/05 00:49:05;;;;;;;;;14.75;11.50;;;;;16.37;51.45;101582.44;5113891;27;45425;-67
2022/05/05 00:51:31;;;;;;;;;13.00;13.00;;;;;16.37;51.83;101612.13;5114403;27;45496;-67
2022/05/05 00:53:57;;;;;;;;;13.25;13.25;;;;;16.18;51.86;101585.72;5113621;27;46585;-66
2022/05/05 00:56:23;;;;;;;;;13.25;11.75;;;;;16.27;51.84;101596.69;5113668;27;45438;-67
2022/05/05 00:58:50;;;;;;;;;13.75;11.75;;;;;16.18;51.74;101574.94;5114006;27;45476;-69
2022/05/05 01:01:19;;;;;;;;;14.50;12.50;;;;;16.38;51.19;101610.31;5114517;27;45575;-65
2022/05/05 01:03:45;;;;;;;;;11.50;8.75;;;;;16.39;50.58;101607.66;5117146;27;45439;-66
2022/05/05 01:06:13;;;;;;;;;15.25;12.75;;;;;16.41;50.42;101604.97;5117352;27;45580;-65
2022/05/05 01:08:39;;;;;;;;;10.75;10.75;;;;;15.89;50.46;101523.22;5117857;27;45500;-69
2022/05/05 01:11:04;;;;;;;;;11.00;9.00;;;;;16.40;50.70;101603.19;5117942;27;45483;-67
2022/05/05 01:13:31;;;;;;;;;11.25;11.25;;;;;16.40;50.27;101608.59;5117101;27;45542;-67
2022/05/05 01:15:58;;;;;;;;;14.25;13.25;;;;;16.34;50.17;101601.28;5116973;27;45397;-67
2022/05/05 01:18:23;;;;;;;;;10.75;8.50;;;;;16.38;50.13;101613.03;5117377;27;45497;-66
2022/05/05 01:20:52;;;;;;;;;10.25;10.25;;;;;16.29;49.73;101599.41;5117111;27;45523;-66
2022/05/05 01:23:17;;;;;;;;;8.50;8.50;;;;;16.38;49.77;101616.66;5116956;27;46274;-66
2022/05/05 01:28:29;;;;;;;;;8.75;8.75;;;;;16.32;49.90;101613.84;5117712;27;45696;-66
2022/05/05 01:30:55;;;;;;;;;10.25;8.50;;;;;16.14;49.92;101590.16;5117090;27;45616;-67
2022/05/05 01:33:22;;;;;;;;;6.75;6.75;;;;;16.28;50.09;101613.75;5114686;27;46572;-66
2022/05/05 01:35:52;;;;;;;;;6.75;6.75;;;;;16.26;50.18;101615.53;5112495;27;45280;-67
2022/05/05 01:38:20;;;;;;;;;10.50;8.25;;;;;16.21;50.64;101612.75;5116621;27;45348;-66
2022/05/05 01:40:48;;;;;;;;;9.00;7.25;;;;;16.16;51.24;101611.75;5116962;27;45601;-67
2022/05/05 01:43:18;;;;;;;;;8.25;7.75;;;;;16.11;50.92;101610.78;5116535;27;46727;-66
2022/05/05 01:45:45;;;;;;;;;8.75;8.75;;;;;16.08;50.98;101608.03;5116488;27;45458;-69
2022/05/05 01:48:11;;;;;;;;;9.25;7.75;;;;;16.09;51.39;101607.16;5116679;27;45452;-67
2022/05/05 01:50:37;;;;;;;;;7.00;7.00;;;;;16.09;51.21;101593.69;5116737;27;45329;-66
2022/05/05 01:53:03;;;;;;;;;8.00;7.25;;;;;15.96;51.25;101584.47;5116343;27;46800;-68
2022/05/05 01:55:31;;;;;;;;;7.50;7.50;;;;;15.98;51.54;101597.06;5116559;27;45394;-67
2022/05/05 01:57:57;;;;;;;;;9.50;7.00;;;;;15.97;51.52;101599.72;5116893;27;45528;-67
2022/05/05 02:00:23;;;;;;;;;10.00;8.75;;;;;15.93;51.48;101595.19;5116640;27;45318;-67
2022/05/05 02:02:49;;;;;;;;;9.50;9.50;;;;;15.97;51.33;101600.66;5097722;27;46471;-66
2022/05/05 02:05:15;;;;;;;;;8.25;8.25;;;;;15.92;51.60;101610.47;5116234;27;45530;-66
2022/05/05 02:07:41;;;;;;;;;10.75;10.75;;;;;15.89;51.70;101618.47;5116684;27;45501;-67
2022/05/05 02:10:09;;;;;;;;;10.00;8.75;;;;;15.89;51.48;101612.16;5117005;27;45677;-66
2022/05/05 02:12:36;;;;;;;;;11.25;8.50;;;;;15.85;51.72;101613.91;5115644;27;46605;-66
2022/05/05 02:15:06;;;;;;;;;9.75;8.25;;;;;15.82;51.38;101613.84;5116289;27;45473;-67
2022/05/05 02:17:38;;;;;;;;;8.75;8.00;;;;;15.83;51.56;101616.56;5110472;27;45584;-67
2022/05/05 02:20:05;;;;;;;;;9.00;9.00;;;;;15.73;51.29;101601.06;5116104;27;45360;-67
2022/05/05 02:22:31;;;;;;;;;13.00;13.00;;;;;15.79;51.65;101614.72;5115868;27;45502;-67
2022/05/05 02:24:57;;;;;;;;;12.25;10.50;;;;;15.81;51.70;101612.94;5115998;27;45576;-67
2022/05/05 02:27:22;;;;;;;;;11.25;10.00;;;;;15.79;51.67;101611.13;5116227;27;45376;-67
2022/05/05 02:29:51;;;;;;;;;13.50;12.75;;;;;15.81;51.86;101606.66;5116884;27;45581;-68
2022/05/05 02:32:19;;;;;;;;;16.25;11.75;;;;;15.79;52.09;101608.41;5116049;27;45578;-67
2022/05/05 02:34:46;;;;;;;;;16.25;14.50;;;;;15.81;51.95;101607.56;5096014;27;45421;-66
2022/05/05 02:39:56;;;;;;;;;18.25;16.50;;;;;15.79;52.47;101605.72;5116365;27;45356;-67
2022/05/05 02:42:21;;;;;;;;;16.25;13.25;;;;;15.75;52.63;101607.41;5115513;27;46105;-67
2022/05/05 02:44:47;;;;;;;;;16.00;14.00;;;;;15.64;52.98;101582.03;5115598;27;45321;-68
2022/05/05 02:47:13;;;;;;;;;15.50;13.00;;;;;15.67;53.24;101600.94;5116068;27;45551;-68
2022/05/05 02:49:38;;;;;;;;;18.75;15.75;;;;;15.55;53.63;101589.97;5116565;27;45555;-68
2022/05/05 02:52:05;;;;;;;;;15.75;15.50;;;;;15.55;53.67;101593.56;5115863;27;46047;-67
2022/05/05 02:57:14;;;;;;;;;14.25;14.25;;;;;15.34;53.88;101580.56;5115804;27;45514;-67
2022/05/05 02:59:40;;;;;;;;;22.00;16.75;;;;;15.45;53.91;101603.22;5115616;27;45326;-68
2022/05/05 03:02:06;;;;;;;;;15.25;13.75;;;;;15.45;54.01;101603.22;5115749;27;46520;-68
2022/05/05 03:04:31;;;;;;;;;15.75;14.50;;;;;15.47;54.11;101601.47;5115753;27;45281;-68
2022/05/05 03:06:57;;;;;;;;;17.00;15.75;;;;;15.47;54.28;101601.47;5116316;27;45492;-67
2022/05/05 03:09:22;;;;;;;;;17.50;15.50;;;;;15.38;54.08;101589.63;5116328;27;45540;-67
2022/05/05 03:11:47;;;;;;;;;17.00;16.00;;;;;15.51;54.45;101606.91;5115561;27;46396;-67
2022/05/05 03:14:13;;;;;;;;;14.75;13.50;;;;;15.52;53.97;101606.06;5115308;27;47344;-68
2022/05/05 03:16:39;;;;;;;;;16.50;14.75;;;;;15.52;54.25;101598.88;5102755;27;45684;-68
2022/05/05 03:19:04;;;;;;;;;17.50;17.25;;;;;15.46;54.51;101602.38;5095576;27;45602;-67
2022/05/05 03:21:29;;;;;;;;;16.75;15.25;;;;;15.34;54.70;101598.50;5094987;27;49837;-66
2022/05/05 03:23:55;;;;;;;;;19.00;14.75;;;;;15.30;54.88;101594.84;5094875;27;45376;-67
2022/05/05 03:26:20;;;;;;;;;17.50;17.25;;;;;15.28;55.12;101602.91;5095374;27;45436;-68
2022/05/05 03:28:45;;;;;;;;;18.75;15.00;;;;;15.27;55.00;101603.75;5095783;27;45417;-67
2022/05/05 03:31:10;;;;;;;;;15.75;13.75;;;;;15.10;55.28;101571.13;5094966;27;45340;-68
2022/05/05 03:33:36;;;;;;;;;16.75;14.00;;;;;14.82;55.31;101526.56;5095166;27;45372;-66
2022/05/05 03:36:03;;;;;;;;;16.75;13.50;;;;;15.29;55.15;101601.09;5095544;27;45427;-68
2022/05/05 03:38:28;;;;;;;;;17.25;14.25;;;;;15.29;55.09;101601.09;5095722;27;45247;-67
2022/05/05 03:40:54;;;;;;;;;16.00;15.25;;;;;15.28;55.34;101602.00;5094838;27;46270;-67
2022/05/05 03:43:19;;;;;;;;;20.25;17.75;;;;;15.24;55.11;101608.19;5095246;27;45867;-67
2022/05/05 03:45:45;;;;;;;;;19.00;15.00;;;;;14.98;55.36;101569.94;5095149;27;45437;-67
2022/05/05 03:48:10;;;;;;;;;22.50;16.50;;;;;15.15;55.48;101611.59;5095372;27;45441;-67
2022/05/05 03:50:36;;;;;;;;;20.75;15.75;;;;;15.15;55.81;101616.97;5094880;27;45673;-68
2022/05/05 03:53:01;;;;;;;;;17.25;17.25;;;;;15.17;55.87;101617.00;5094921;27;45478;-68
2022/05/05 03:55:28;;;;;;;;;25.75;17.75;;;;;15.16;56.16;101615.19;5095400;27;45470;-66
2022/05/05 03:57:54;;;;;;;;;18.00;15.75;;;;;15.08;56.34;101615.03;5095252;27;45536;-67
2022/05/05 04:00:21;;;;;;;;;13.50;12.75;;;;;15.05;56.65;101613.16;5094505;27;46110;-67
2022/05/05 04:03:30;;;;;;;;;10.25;10.25;;;;;15.06;56.04;101616.75;5094897;27;45345;-68
2022/05/05 04:05:33;;;;;;;;;11.50;10.25;;;;;14.87;56.25;101589.44;5094925;27;45484;-68
2022/05/05 04:07:59;;;;;;;;;17.50;14.75;;;;;15.08;56.44;101612.34;5095091;27;45318;-69
2022/05/05 04:10:24;;;;;;;;;11.50;10.00;;;;;15.09;56.01;101622.22;5094655;27;45575;-66
2022/05/05 04:12:50;;;;;;;;;14.75;12.25;;;;;15.15;56.04;101619.66;5094211;27;47100;-67
2022/05/05 04:15:15;;;;;;;;;19.75;16.50;;;;;15.11;56.37;101618.69;5094550;27;47709;-67
2022/05/05 04:17:40;;;;;;;;;13.00;12.25;;;;;15.06;56.63;101624.84;5094940;27;45465;-69
2022/05/05 04:20:06;;;;;;;;;21.00;14.75;;;;;15.04;56.48;101631.97;5093831;27;49218;-68
2022/05/05 04:22:31;;;;;;;;;14.25;14.25;;;;;15.07;56.31;101623.97;5094385;27;45341;-68
2022/05/05 04:24:57;;;;;;;;;14.25;12.75;;;;;15.07;56.45;101629.34;5094671;27;45372;-67
2022/05/05 04:27:22;;;;;;;;;14.75;13.50;;;;;15.04;56.58;101626.59;5094613;27;45592;-69
2022/05/05 04:29:48;;;;;;;;;17.75;16.25;;;;;14.83;56.89;101616.25;5094339;27;45610;-68
2022/05/05 04:32:13;;;;;;;;;20.50;17.50;;;;;14.90;57.12;101637.06;5094306;27;45393;-67
2022/05/05 04:34:39;;;;;;;;;11.75;10.75;;;;;14.79;57.17;101622.44;5076160;27;45508;-68
2022/05/05 04:37:05;;;;;;;;;16.75;14.75;;;;;14.81;57.07;101626.06;5097775;27;45575;-67
2022/05/05 04:39:30;;;;;;;;;18.75;16.50;;;;;14.91;57.38;101647.88;5097681;27;46087;-68
2022/05/05 04:41:56;;;;;;;;;15.50;14.50;;;;;14.89;57.34;101625.38;5097938;27;45497;-67
2022/05/05 04:44:21;;;;;;;;;19.25;16.25;;;;;15.01;57.67;101643.56;5098254;27;45600;-68
2022/05/05 04:46:47;;;;;;;;;16.00;13.50;;;;;15.07;57.01;101642.81;5098106;27;45541;-69
2022/05/05 04:49:12;;;;;;;;;20.25;16.00;;;;;15.00;57.30;101644.47;5097826;27;46123;-67
2022/05/05 04:51:37;;;;;;;;;16.00;14.00;;;;;14.87;57.70;101650.44;5097866;27;45289;-66
2022/05/05 04:54:03;;;;;;;;;19.00;19.00;;;;;14.74;58.54;101650.13;5097890;27;45379;-66
2022/05/05 04:56:28;;;;;;;;;20.50;18.25;;;;;14.66;59.16;101650.84;5098098;27;45306;-66
2022/05/05 04:58:54;;;;;;;;;20.00;16.75;;;;;14.61;59.18;101663.25;5097251;27;52649;-66
2022/05/05 05:01:19;;;;;;;;;22.50;21.75;;;;;14.66;58.73;101657.09;5097702;27;45283;-67
2022/05/05 05:03:44;;;;;;;;;20.50;19.25;;;;;14.74;58.92;101660.88;5097714;27;45598;-67
2022/05/05 05:06:10;;;;;;;;;20.00;18.50;;;;;14.80;59.05;101659.22;5098212;27;45457;-67
2022/05/05 05:08:36;;;;;;;;;24.00;21.25;;;;;14.77;58.78;101643.94;5078851;27;47279;-67
2022/05/05 05:11:01;;;;;;;;;26.75;24.75;;;;;14.86;58.83;101665.66;5097671;27;45676;-68
2022/05/05 05:13:27;;;;;;;;;20.25;18.00;;;;;14.83;59.03;101670.06;5097743;27;45360;-67
2022/05/05 05:15:52;;;;;;;;;26.00;23.00;;;;;14.88;58.80;101661.25;5111533;27;45488;-66
2022/05/05 05:18:17;;;;;;;;;23.50;20.75;;;;;14.80;59.12;101641.31;5117058;27;45872;-66
2022/05/05 05:20:43;;;;;;;;;40.75;30.50;;;;;14.89;58.68;101643.31;5116969;27;45445;-68
2022/05/05 05:23:09;;;;;;;;;30.00;25.50;;;;;15.03;59.24;101674.13;5117117;27;45675;-68
2022/05/05 05:25:34;;;;;;;;;28.75;24.25;;;;;14.98;59.30;101673.13;5117160;27;45530;-67
2022/05/05 05:28:00;;;;;;;;;26.50;21.75;;;;;14.96;59.29;101679.34;5116925;27;46021;-67
2022/05/05 05:30:25;;;;;;;;;30.75;27.25;;;;;14.97;59.61;101684.75;5116732;27;45500;-70
2022/05/05 05:32:51;;;;;;;;;29.75;23.25;;;;;14.81;59.29;101655.66;5116967;27;46305;-66
2022/05/05 05:35:16;;;;;;;;;34.75;27.75;;;;;15.03;59.00;101678.59;5116952;27;45635;-67
2022/05/05 05:37:42;;;;;;;;;22.50;19.00;;;;;15.05;59.14;101682.25;5116974;27;47250;-68
2022/05/05 05:40:08;;;;;;;;;52.50;41.50;;;;;15.11;59.47;101682.38;5116978;27;45624;-68
2022/05/05 05:42:33;;;;;;;;;97.50;84.50;;;;;15.16;59.28;101688.75;5116821;27;45490;-68
2022/05/05 05:44:58;;;;;;;;;36.25;32.00;;;;;15.24;58.85;101687.16;5116694;27;45613;-70
2022/05/05 05:47:24;;;;;;;;;29.00;27.50;;;;;15.10;58.85;101678.78;5115587;27;45394;-66
2022/05/05 05:49:49;;;;;;;;;32.75;29.25;;;;;15.20;59.28;101695.16;5116366;27;45613;-68
2022/05/05 05:52:14;;;;;;;;;35.25;31.25;;;;;15.16;59.37;101685.16;5116515;27;45390;-68
2022/05/05 05:54:40;;;;;;;;;31.75;29.00;;;;;15.17;59.49;101693.28;5116544;27;45365;-67
2022/05/05 05:57:05;;;;;;;;;30.50;29.50;;;;;15.10;60.11;101692.22;5115935;27;46142;-67
2022/05/05 05:59:30;;;;;;;;;41.50;30.00;;;;;15.07;59.95;101672.41;5115863;27;45472;-68
2022/05/05 06:04:40;;;;;;;;;30.50;26.50;;;;;15.37;59.28;101693.72;5116166;27;45369;-68
2022/05/05 06:07:05;;;;;;;;;35.00;30.00;;;;;15.18;59.62;101673.56;5115911;27;45425;-66
2022/05/05 06:09:30;;;;;;;;;29.75;27.75;;;;;15.05;59.46;101666.09;5116112;27;45319;-67
2022/05/05 06:11:56;;;;;;;;;27.75;24.75;;;;;15.02;59.58;101649.88;5116281;27;45656;-68
2022/05/05 06:14:21;;;;;;;;;38.75;28.75;;;;;15.26;59.49;101696.19;5115709;27;45393;-69
2022/05/05 06:16:46;;;;;;;;;33.50;27.50;;;;;15.09;59.75;101663.47;5115771;27;45435;-67
2022/05/05 06:19:12;;;;;;;;;38.50;29.50;;;;;15.18;59.66;101680.72;5115829;27;45341;-68
2022/05/05 06:21:37;;;;;;;;;33.00;29.00;;;;;15.33;59.58;101701.69;5115999;27;45302;-69
2022/05/05 06:24:03;;;;;;;;;25.00;23.50;;;;;15.35;59.58;101702.66;5116030;27;45684;-67
2022/05/05 06:26:29;;;;;;;;;25.50;24.00;;;;;15.39;59.18;101701.84;5115933;27;45318;-67
2022/05/05 06:28:55;;;;;;;;;32.50;28.75;;;;;15.53;58.92;101705.75;5115435;27;45372;-68
2022/05/05 06:31:20;;;;;;;;;33.50;27.50;;;;;15.57;58.68;101702.22;5115209;27;45492;-67
2022/05/05 06:33:46;;;;;;;;;30.25;23.50;;;;;15.40;58.63;101679.44;5116094;27;45323;-68
2022/05/05 06:36:11;;;;;;;;;28.50;23.75;;;;;15.27;58.98;101641.44;5079486;27;46232;-68
2022/05/05 06:38:37;;;;;;;;;33.50;30.50;;;;;15.74;58.61;101705.28;5113274;27;45388;-68
2022/05/05 06:41:02;;;;;;;;;29.25;26.25;;;;;15.77;58.42;101713.47;5115962;27;45564;-68
2022/05/05 06:43:27;;;;;;;;;26.00;24.50;;;;;15.78;58.08;101707.19;5115940;27;45469;-68
2022/05/05 06:45:54;;;;;;;;;29.75;23.75;;;;;15.83;58.15;101718.06;5108862;27;46030;-68
2022/05/05 06:48:19;;;;;;;;;8.75;7.75;;;;;15.90;57.76;101719.09;5115569;27;45273;-68
2022/05/05 06:50:44;;;;;;;;;33.50;26.50;;;;;15.85;57.86;101719.00;5115084;27;45528;-67
2022/05/05 06:53:10;;;;;;;;;29.50;26.00;;;;;15.86;58.19;101715.44;5083623;27;45314;-66
2022/05/05 06:55:35;;;;;;;;;44.50;36.25;;;;;15.88;57.97;101718.16;5096844;27;46431;-67
2022/05/05 06:58:00;;;;;;;;;31.00;25.75;;;;;15.99;58.23;101728.28;5115569;27;45587;-67
2022/05/05 07:01:51;;;;;;;;;32.00;26.25;;;;;15.99;58.18;101719.28;5096126;27;45773;-68
2022/05/05 07:03:11;;;;;;;;;34.00;29.50;;;;;16.01;57.76;101721.13;5116028;27;45556;-69
2022/05/05 07:05:37;;;;;;;;;33.00;29.00;;;;;15.98;57.68;101712.06;5115363;27;45398;-69
2022/05/05 07:08:02;;;;;;;;;30.00;26.75;;;;;16.09;57.85;101717.69;5115252;27;45301;-69
2022/05/05 07:13:12;;;;;;;;;31.00;26.75;;;;;16.07;57.42;101708.63;5115790;27;45271;-68
2022/05/05 07:15:38;;;;;;;;;28.00;25.75;;;;;16.09;56.93;101712.28;5115045;27;45573;-68
2022/05/05 07:18:04;;;;;;;;;39.50;34.00;;;;;16.24;57.40;101731.44;5114898;27;45517;-69
2022/05/05 07:20:29;;;;;;;;;26.00;22.00;;;;;16.26;57.00;101728.78;5114965;27;45482;-67
2022/05/05 07:22:56;;;;;;;;;25.75;22.75;;;;;16.13;57.14;101722.25;5115540;27;45582;-68
2022/05/05 07:25:22;;;;;;;;;31.00;29.00;;;;;16.27;57.22;101736.91;5114790;27;45368;-68
2022/05/05 07:27:47;;;;;;;;;26.00;24.50;;;;;16.28;56.98;101744.09;5114656;27;45437;-69
2022/05/05 07:30:14;;;;;;;;;35.50;28.50;;;;;16.24;57.78;101749.41;5115004;27;45491;-68
2022/05/05 07:32:40;;;;;;;;;37.50;31.00;;;;;16.25;57.40;101749.47;5115322;27;45540;-69
2022/05/05 07:35:05;;;;;;;;;30.25;28.00;;;;;16.18;57.03;101732.22;5114906;27;45552;-68
2022/05/05 07:37:32;;;;;;;;;35.00;29.50;;;;;16.19;57.26;101738.53;5114855;27;45414;-68
2022/05/05 07:39:57;;;;;;;;;34.75;28.00;;;;;16.21;57.00;101737.69;5115038;27;45399;-68
2022/05/05 07:42:23;;;;;;;;;33.75;28.75;;;;;16.30;57.25;101753.16;5114996;27;45439;-69
2022/05/05 07:44:48;;;;;;;;;29.00;22.75;;;;;15.89;56.84;101677.78;5114698;27;45776;-68
2022/05/05 07:47:13;;;;;;;;;29.00;26.00;;;;;16.27;56.75;101745.00;5115036;27;45436;-70
2022/05/05 07:49:39;;;;;;;;;35.00;30.00;;;;;16.14;57.01;101726.75;5115130;27;45469;-69
2022/05/05 07:52:04;;;;;;;;;22.75;22.75;;;;;16.17;56.60;101730.41;5114961;27;45469;-68
2022/05/05 07:54:37;;;;;;;;;29.50;26.00;;;;;16.35;56.39;101756.84;5114527;27;45430;-69
2022/05/05 07:57:04;;;;;;;;;29.25;29.00;;;;;16.40;56.54;101748.84;5114845;27;45420;-69
2022/05/05 07:59:29;;;;;;;;;28.00;26.75;;;;;16.56;56.12;101760.78;5114945;27;45449;-68
2022/05/05 08:01:55;;;;;;;;;31.75;30.50;;;;;16.63;56.23;101764.50;5114679;27;45486;-67
2022/05/05 08:04:20;;;;;;;;;31.00;30.00;;;;;16.73;55.86;101761.09;5114679;27;45475;-69
2022/05/05 08:06:45;;;;;;;;;30.50;26.50;;;;;16.84;55.34;101750.47;5114383;27;51818;-68
2022/05/05 08:09:11;;;;;;;;;39.50;34.00;;;;;17.01;54.84;101765.22;5114698;27;45392;-69
2022/05/05 08:11:37;;;;;;;;;35.75;29.00;;;;;16.95;53.98;101746.19;5114758;27;45553;-68
2022/05/05 08:14:03;;;;;;;;;30.50;26.50;;;;;17.07;54.10;101764.38;5114643;27;45467;-67
2022/05/05 08:16:29;;;;;;;;;29.00;23.50;;;;;17.05;54.12;101763.47;5114513;27;45651;-68
2022/05/05 08:18:54;;;;;;;;;25.25;21.50;;;;;16.77;53.59;101715.28;5114251;27;45530;-68
2022/05/05 08:21:21;;;;;;;;;20.25;18.75;;;;;17.09;53.76;101766.25;5114341;27;45606;-69
2022/05/05 08:23:47;;;;;;;;;30.75;24.00;;;;;17.10;53.53;101768.03;5114233;27;46036;-68
2022/05/05 08:28:56;;;;;;;;;34.25;31.75;;;;;17.17;53.38;101773.53;5114326;27;44723;-67
2022/05/05 08:31:21;;;;;;;;;29.75;29.75;;;;;17.24;53.11;101768.28;5114522;27;45388;-67
2022/05/05 08:33:47;;;;;;;;;40.00;33.25;;;;;17.12;53.13;101739.25;5114220;27;45571;-67
2022/05/05 08:36:13;;;;;;;;;27.00;25.50;;;;;17.35;52.61;101764.81;5114196;27;45287;-68
2022/05/05 08:38:38;;;;;;;;;29.25;26.75;;;;;17.40;52.57;101752.28;5114256;27;45420;-69
2022/05/05 08:41:08;;;;;;;;;32.00;28.25;;;;;17.49;52.08;101772.22;5095350;27;45559;-68
2022/05/05 08:43:34;;;;;;;;;36.50;27.50;;;;;17.42;52.62;101773.03;5114227;27;45359;-67
2022/05/05 08:46:02;;;;;;;;;39.00;30.50;;;;;17.45;52.82;101777.56;5113955;27;45357;-68
2022/05/05 08:48:31;;;;;;;;;24.25;19.75;;;;;17.54;53.03;101766.91;5114185;27;45516;-68
2022/05/05 08:51:01;;;;;;;;;33.00;25.25;;;;;17.70;52.54;101762.59;5114018;27;45413;-68
2022/05/05 08:53:33;;;;;;;;;26.00;20.75;;;;;17.93;52.23;101772.84;5113671;27;45344;-67
2022/05/05 08:56:00;;;;;;;;;27.00;20.00;;;;;18.04;51.63;101779.28;5113503;27;45499;-68
2022/05/05 08:58:25;;;;;;;;;24.25;18.75;;;;;18.15;51.27;101777.63;5113816;27;45319;-67
2022/05/05 09:00:52;;;;;;;;;16.50;16.50;;;;;18.21;50.82;101765.94;5114008;27;45480;-68
2022/05/05 09:03:18;;;;;;;;;24.50;20.75;;;;;18.30;50.36;101768.78;5078482;27;47231;-67
2022/05/05 09:05:43;;;;;;;;;25.75;19.25;;;;;18.32;49.67;101772.38;5110545;27;45495;-68
2022/05/05 09:08:12;;;;;;;;;22.00;18.75;;;;;18.34;49.96;101781.41;5113673;27;45449;-68
2022/05/05 09:10:42;;;;;;;;;23.50;22.00;;;;;18.30;50.03;101771.47;5095296;27;45462;-68
2022/05/05 09:13:08;;;;;;;;;19.25;16.75;;;;;18.16;49.88;101752.38;5113592;27;46202;-69
2022/05/05 09:15:36;;;;;;;;;19.00;18.00;;;;;18.30;49.65;101768.78;5113811;27;45258;-68
2022/05/05 09:18:16;;;;;;;;;17.00;17.00;;;;;18.34;49.48;101777.81;5113364;27;45473;-68
2022/05/05 09:20:43;;;;;;;;;16.25;15.00;;;;;18.29;49.40;101776.88;5113559;27;45423;-67
2022/05/05 09:23:09;;;;;;;;;18.50;18.50;;;;;17.91;48.74;101715.13;5114955;27;46202;-67
2022/05/05 09:25:53;;;;;;;;;16.75;15.00;;;;;18.27;48.56;101759.72;5116866;27;45562;-67
2022/05/05 09:28:23;;;;;;;;;17.00;11.75;;;;;18.35;48.43;101749.88;5097477;27;45538;-67
2022/05/05 09:30:53;;;;;;;;;67.50;53.00;;;;;18.53;48.34;101769.00;5097119;27;45458;-67
2022/05/05 09:33:33;;;;;;;;;16.25;13.75;;;;;18.68;47.54;101776.38;5110392;27;46369;-68
2022/05/05 09:35:59;;;;;;;;;12.67;10.67;;;;;18.72;47.64;101778.19;5116634;27;45545;-67
2022/05/05 09:38:50;;;;;;;;;21.50;21.50;;;;;18.82;47.78;101775.56;5116942;27;45297;-67
2022/05/05 09:41:17;;;;;;;;;15.00;12.75;;;;;18.75;47.27;101732.19;5116232;27;45335;-68
2022/05/05 09:43:42;;;;;;;;;12.00;12.00;;;;;19.19;46.04;101774.13;5116350;27;45689;-68
2022/05/05 09:46:22;;;;;;;;;12.50;10.00;;;;;19.23;45.72;101778.66;5116143;27;45653;-67
2022/05/05 09:48:51;;;;;;;;;9.25;9.25;;;;;19.34;45.58;101778.75;5116669;27;45464;-67
2022/05/05 09:51:18;;;;;;;;;15.25;11.50;;;;;19.23;45.54;101778.66;5116352;27;45366;-68
2022/05/05 09:59:20;;;;;;;;;26.00;22.00;;;;;19.20;45.49;101766.88;5116064;27;45347;-69
2022/05/05 10:01:50;;;;;;;;;13.67;12.67;;;;;19.30;44.60;101779.59;5115858;27;45319;-67
2022/05/05 10:04:18;;;;;;;;;13.25;10.75;;;;;19.40;44.72;101773.38;5115834;27;45346;-68
2022/05/05 10:06:44;;;;;;;;;13.25;11.75;;;;;19.48;44.35;101777.00;5111467;27;45424;-68
2022/05/05 10:09:16;;;;;;;;;11.25;9.75;;;;;19.56;43.98;101785.19;5096535;27;45647;-68
2022/05/05 10:11:41;;;;;;;;;7.75;6.50;;;;;19.38;43.86;101760.69;5096565;27;45232;-69
2022/05/05 10:14:12;;;;;;;;;16.50;14.50;;;;;19.33;44.41;101760.66;5096267;27;46626;-68
2022/05/05 10:16:39;;;;;;;;;20.25;16.25;;;;;19.55;44.23;101780.69;5107410;27;45358;-68
2022/05/05 10:19:06;;;;;;;;;11.50;11.50;;;;;19.58;43.78;101758.97;5115822;27;45350;-69
2022/05/05 10:21:37;;;;;;;;;14.00;11.00;;;;;19.62;42.66;101771.66;5116068;27;45348;-69
2022/05/05 10:24:03;;;;;;;;;9.67;7.33;;;;;19.69;42.71;101784.34;5115910;27;45479;-70
2022/05/05 10:26:29;;;;;;;;;7.67;5.67;;;;;19.61;42.17;101783.41;5115668;27;45578;-69
2022/05/05 10:28:54;;;;;;;;;4.67;4.67;;;;;19.37;41.68;101739.88;5115785;27;45313;-67
2022/05/05 10:31:32;;;;;;;;;9.00;7.00;;;;;19.52;42.00;101786.06;5115485;27;45273;-69
2022/05/05 10:34:01;;;;;;;;;9.33;6.67;;;;;19.15;42.01;101726.22;5114724;27;45489;-68
2022/05/05 10:36:28;;;;;;;;;9.25;9.25;;;;;19.49;42.14;101786.94;5115390;27;45596;-69
2022/05/05 10:38:54;;;;;;;;;6.00;6.00;;;;;19.54;41.50;101778.84;5115715;27;45316;-68
2022/05/05 10:41:39;;;;;;;;;5.67;5.00;;;;;19.49;41.92;101777.94;5115551;27;45445;-69
2022/05/05 10:44:20;;;;;;;;;12.33;9.00;;;;;19.56;41.96;101779.75;5115172;27;45467;-67
2022/05/05 10:46:52;;;;;;;;;11.75;9.50;;;;;19.44;41.90;101750.78;5115089;27;45305;-69
2022/05/05 10:49:30;;;;;;;;;15.25;12.75;;;;;19.64;42.15;101774.41;5115505;27;45479;-68
2022/05/05 10:52:10;;;;;;;;;12.67;9.33;;;;;19.58;42.18;101774.34;5115362;27;45445;-69
2022/05/05 10:54:36;;;;;;;;;10.33;8.33;;;;;19.49;41.64;101751.72;5114885;27;46397;-69
2022/05/05 10:57:26;;;;;;;;;7.67;6.00;;;;;19.56;41.43;101779.75;5114750;27;45534;-67
2022/05/05 11:00:19;;;;;;;;;19.25;15.75;;;;;19.51;42.22;101776.13;5114996;27;45399;-69
2022/05/05 11:03:03;;;;;;;;;14.75;13.25;;;;;19.57;42.14;101772.53;5114785;27;45495;-68
2022/05/05 11:05:42;;;;;;;;;6.33;5.67;;;;;19.52;41.74;101753.56;5114753;27;46180;-68
2022/05/05 11:08:26;;;;;;;;;19.50;14.50;;;;;19.67;41.61;101769.00;5115006;27;45594;-67
2022/05/05 11:13:38;;;;;;;;;7.00;7.00;;;;;19.80;40.29;101762.75;5115172;27;45408;-68
2022/05/05 11:22:17;;;;;;;;;17.75;17.00;;;;;19.91;40.00;101761.88;5115569;27;45326;-68
2022/05/05 11:24:45;;;;;;;;;17.33;17.33;;;;;19.84;40.01;101767.28;5115963;27;45473;-69
2022/05/05 11:27:17;;;;;;;;;13.00;12.00;;;;;19.83;40.68;101769.97;5115492;27;45451;-69
2022/05/05 11:29:50;;;;;;;;;6.33;6.33;;;;;19.74;40.23;101759.06;5097599;27;45322;-68
2022/05/05 11:32:17;;;;;;;;;9.33;7.33;;;;;19.83;40.49;101764.56;5114810;27;45285;-68
2022/05/05 11:34:45;;;;;;;;;9.67;8.67;;;;;19.87;39.70;101763.69;5115212;27;45409;-69
2022/05/05 11:37:11;;;;;;;;;13.00;10.67;;;;;19.72;39.76;101736.47;5114919;27;45721;-67
2022/05/05 11:39:37;;;;;;;;;5.33;5.00;;;;;19.22;39.12;101652.22;5114872;27;45388;-66
2022/05/05 11:42:05;;;;;;;;;7.67;6.00;;;;;19.61;39.45;101725.56;5114490;27;45433;-67
2022/05/05 11:44:41;;;;;;;;;10.00;9.33;;;;;19.73;39.70;101735.56;5114311;27;45453;-69